sensor_id;sensor_type;location;lat;lon;timestamp;pressure;altitude;pressure_sealevel;temperature
58929;BMP180;44713;53.378;10.022;2023-04-25T00:01:13;100183.00;;;8.20
58929;BMP180;44713;53.378;10.022;2023-04-25T00:03:38;100178.00;;;8.20
58929;BMP180;44713;53.378;10.022;2023-04-25T00:06:05;100185.00;;;8.20
58929;BMP180;44713;53.378;10.022;2023-04-25T00:08:31;100184.00;;;8.20
58929;BMP180;44713;53.378;10.022;2023-04-25T00:10:58;100190.00;;;8.10
58929;BMP180;44713;53.378;10.022;2023-04-25T00:13:23;100195.00;;;8.20
58929;BMP180;44713;53.378;10.022;2023-04-25T00:15:50;100183.00;;;8.20
58929;BMP180;44713;53.378;10.022;2023-04-25T00:18:16;100190.00;;;8.20
58929;BMP180;44713;53.378;10.022;2023-04-25T00:20:43;100186.00;;;8.20
58929;BMP180;44713;53.378;10.022;2023-04-25T00:23:13;100191.00;;;8.10
58929;BMP180;44713;53.378;10.022;2023-04-25T00:25:49;100202.00;;;8.10
58929;BMP180;44713;53.378;10.022;2023-04-25T00:28:15;100202.00;;;8.00
58929;BMP180;44713;53.378;10.022;2023-04-25T00:30:42;100204.00;;;7.90
58929;BMP180;44713;53.378;10.022;2023-04-25T00:33:08;100214.00;;;7.90
58929;BMP180;44713;53.378;10.022;2023-04-25T00:35:34;100210.00;;;7.90
58929;BMP180;44713;53.378;10.022;2023-04-25T00:37:59;100207.00;;;7.90
58929;BMP180;44713;53.378;10.022;2023-04-25T00:40:25;100216.00;;;7.90
58929;BMP180;44713;53.378;10.022;2023-04-25T00:42:52;100213.00;;;7.90
58929;BMP180;44713;53.378;10.022;2023-04-25T00:45:18;100221.00;;;7.70
58929;BMP180;44713;53.378;10.022;2023-04-25T00:47:44;100227.00;;;7.80
58929;BMP180;44713;53.378;10.022;2023-04-25T00:50:10;100233.00;;;7.70
58929;BMP180;44713;53.378;10.022;2023-04-25T00:52:41;100234.00;;;7.70
58929;BMP180;44713;53.378;10.022;2023-04-25T00:55:08;100224.00;;;7.60
58929;BMP180;44713;53.378;10.022;2023-04-25T00:57:34;100228.00;;;7.60
58929;BMP180;44713;53.378;10.022;2023-04-25T01:00:00;100229.00;;;7.60
58929;BMP180;44713;53.378;10.022;2023-04-25T01:02:27;100231.00;;;7.50
58929;BMP180;44713;53.378;10.022;2023-04-25T01:04:52;100221.00;;;7.60
58929;BMP180;44713;53.378;10.022;2023-04-25T01:07:18;100228.00;;;7.50
58929;BMP180;44713;53.378;10.022;2023-04-25T01:09:43;100233.00;;;7.50
58929;BMP180;44713;53.378;10.022;2023-04-25T01:12:09;100238.00;;;7.40
58929;BMP180;44713;53.378;10.022;2023-04-25T01:14:34;100228.00;;;7.40
58929;BMP180;44713;53.378;10.022;2023-04-25T01:17:00;100232.00;;;7.40
58929;BMP180;44713;53.378;10.022;2023-04-25T01:19:25;100232.00;;;7.30
58929;BMP180;44713;53.378;10.022;2023-04-25T01:21:51;100230.00;;;7.30
58929;BMP180;44713;53.378;10.022;2023-04-25T01:24:17;100232.00;;;7.30
58929;BMP180;44713;53.378;10.022;2023-04-25T01:26:43;100239.00;;;7.20
58929;BMP180;44713;53.378;10.022;2023-04-25T01:29:19;100235.00;;;7.20
58929;BMP180;44713;53.378;10.022;2023-04-25T01:31:45;100240.00;;;7.20
58929;BMP180;44713;53.378;10.022;2023-04-25T01:34:11;100243.00;;;7.20
58929;BMP180;44713;53.378;10.022;2023-04-25T01:36:37;100253.00;;;7.20
58929;BMP180;44713;53.378;10.022;2023-04-25T01:39:02;100252.00;;;7.20
58929;BMP180;44713;53.378;10.022;2023-04-25T01:41:28;100252.00;;;7.10
58929;BMP180;44713;53.378;10.022;2023-04-25T01:43:53;100250.00;;;7.10
58929;BMP180;44713;53.378;10.022;2023-04-25T01:46:19;100261.00;;;7.10
58929;BMP180;44713;53.378;10.022;2023-04-25T01:48:44;100264.00;;;7.10
58929;BMP180;44713;53.378;10.022;2023-04-25T01:51:11;100259.00;;;7.10
58929;BMP180;44713;53.378;10.022;2023-04-25T01:53:38;100260.00;;;7.10
58929;BMP180;44713;53.378;10.022;2023-04-25T01:56:04;100257.00;;;7.10
58929;BMP180;44713;53.378;10.022;2023-04-25T01:58:33;100263.00;;;7.10
58929;BMP180;44713;53.378;10.022;2023-04-25T02:01:37;100260.00;;;7.00
58929;BMP180;44713;53.378;10.022;2023-04-25T02:04:17;100266.00;;;7.00
58929;BMP180;44713;53.378;10.022;2023-04-25T02:06:43;100266.00;;;7.00
58929;BMP180;44713;53.378;10.022;2023-04-25T02:09:09;100266.00;;;6.90
58929;BMP180;44713;53.378;10.022;2023-04-25T02:11:39;100271.00;;;7.00
58929;BMP180;44713;53.378;10.022;2023-04-25T02:14:23;100276.00;;;7.00
58929;BMP180;44713;53.378;10.022;2023-04-25T02:16:57;100276.00;;;7.00
58929;BMP180;44713;53.378;10.022;2023-04-25T02:19:23;100287.00;;;6.90
58929;BMP180;44713;53.378;10.022;2023-04-25T02:21:48;100285.00;;;6.90
58929;BMP180;44713;53.378;10.022;2023-04-25T02:24:14;100283.00;;;6.80
58929;BMP180;44713;53.378;10.022;2023-04-25T02:26:39;100288.00;;;6.80
58929;BMP180;44713;53.378;10.022;2023-04-25T02:29:07;100287.00;;;6.80
58929;BMP180;44713;53.378;10.022;2023-04-25T02:31:32;100280.00;;;6.80
58929;BMP180;44713;53.378;10.022;2023-04-25T02:33:58;100281.00;;;6.80
58929;BMP180;44713;53.378;10.022;2023-04-25T02:36:23;100278.00;;;6.80
58929;BMP180;44713;53.378;10.022;2023-04-25T02:38:49;100285.00;;;6.80
58929;BMP180;44713;53.378;10.022;2023-04-25T02:41:15;100281.00;;;6.80
58929;BMP180;44713;53.378;10.022;2023-04-25T02:43:40;100283.00;;;6.70
58929;BMP180;44713;53.378;10.022;2023-04-25T02:46:06;100289.00;;;6.70
58929;BMP180;44713;53.378;10.022;2023-04-25T02:48:31;100283.00;;;6.80
58929;BMP180;44713;53.378;10.022;2023-04-25T02:50:56;100285.00;;;6.70
58929;BMP180;44713;53.378;10.022;2023-04-25T02:53:22;100288.00;;;6.70
58929;BMP180;44713;53.378;10.022;2023-04-25T02:55:50;100288.00;;;6.70
58929;BMP180;44713;53.378;10.022;2023-04-25T02:58:17;100289.00;;;6.70
58929;BMP180;44713;53.378;10.022;2023-04-25T03:00:46;100288.00;;;6.70
58929;BMP180;44713;53.378;10.022;2023-04-25T03:03:12;100304.00;;;6.70
58929;BMP180;44713;53.378;10.022;2023-04-25T03:05:37;100298.00;;;6.70
58929;BMP180;44713;53.378;10.022;2023-04-25T03:08:03;100298.00;;;6.60
58929;BMP180;44713;53.378;10.022;2023-04-25T03:10:30;100305.00;;;6.60
58929;BMP180;44713;53.378;10.022;2023-04-25T03:13:00;100308.00;;;6.60
58929;BMP180;44713;53.378;10.022;2023-04-25T03:15:25;100302.00;;;6.60
58929;BMP180;44713;53.378;10.022;2023-04-25T03:17:51;100302.00;;;6.60
58929;BMP180;44713;53.378;10.022;2023-04-25T03:20:17;100301.00;;;6.60
58929;BMP180;44713;53.378;10.022;2023-04-25T03:22:42;100302.00;;;6.50
58929;BMP180;44713;53.378;10.022;2023-04-25T03:25:08;100307.00;;;6.50
58929;BMP180;44713;53.378;10.022;2023-04-25T03:27:34;100317.00;;;6.50
58929;BMP180;44713;53.378;10.022;2023-04-25T03:29:59;100310.00;;;6.40
58929;BMP180;44713;53.378;10.022;2023-04-25T03:32:24;100321.00;;;6.40
58929;BMP180;44713;53.378;10.022;2023-04-25T03:34:50;100317.00;;;6.40
58929;BMP180;44713;53.378;10.022;2023-04-25T03:37:16;100319.00;;;6.30
58929;BMP180;44713;53.378;10.022;2023-04-25T03:39:41;100337.00;;;6.30
58929;BMP180;44713;53.378;10.022;2023-04-25T03:42:07;100330.00;;;6.20
58929;BMP180;44713;53.378;10.022;2023-04-25T03:44:32;100331.00;;;6.20
58929;BMP180;44713;53.378;10.022;2023-04-25T03:46:59;100333.00;;;6.10
58929;BMP180;44713;53.378;10.022;2023-04-25T03:49:24;100335.00;;;6.10
58929;BMP180;44713;53.378;10.022;2023-04-25T03:51:56;100333.00;;;6.10
58929;BMP180;44713;53.378;10.022;2023-04-25T03:54:21;100335.00;;;6.00
58929;BMP180;44713;53.378;10.022;2023-04-25T03:56:54;100336.00;;;6.00
58929;BMP180;44713;53.378;10.022;2023-04-25T03:59:22;100332.00;;;6.00
58929;BMP180;44713;53.378;10.022;2023-04-25T04:01:47;100345.00;;;6.00
58929;BMP180;44713;53.378;10.022;2023-04-25T04:04:13;100347.00;;;5.90
58929;BMP180;44713;53.378;10.022;2023-04-25T04:06:38;100352.00;;;5.90
58929;BMP180;44713;53.378;10.022;2023-04-25T04:09:11;100347.00;;;5.90
58929;BMP180;44713;53.378;10.022;2023-04-25T04:11:38;100357.00;;;5.90
58929;BMP180;44713;53.378;10.022;2023-04-25T04:14:07;100351.00;;;5.90
58929;BMP180;44713;53.378;10.022;2023-04-25T04:16:33;100354.00;;;5.90
58929;BMP180;44713;53.378;10.022;2023-04-25T04:18:59;100354.00;;;5.80
58929;BMP180;44713;53.378;10.022;2023-04-25T04:21:24;100369.00;;;5.70
58929;BMP180;44713;53.378;10.022;2023-04-25T04:23:53;100364.00;;;5.80
58929;BMP180;44713;53.378;10.022;2023-04-25T04:26:20;100361.00;;;5.80
58929;BMP180;44713;53.378;10.022;2023-04-25T04:29:02;100372.00;;;5.90
58929;BMP180;44713;53.378;10.022;2023-04-25T04:31:50;100368.00;;;5.80
58929;BMP180;44713;53.378;10.022;2023-04-25T04:34:17;100377.00;;;5.90
58929;BMP180;44713;53.378;10.022;2023-04-25T04:36:44;100383.00;;;5.90
58929;BMP180;44713;53.378;10.022;2023-04-25T04:39:12;100379.00;;;6.00
58929;BMP180;44713;53.378;10.022;2023-04-25T04:41:48;100379.00;;;6.00
58929;BMP180;44713;53.378;10.022;2023-04-25T04:44:29;100378.00;;;6.00
58929;BMP180;44713;53.378;10.022;2023-04-25T04:47:11;100380.00;;;6.00
58929;BMP180;44713;53.378;10.022;2023-04-25T04:50:10;100385.00;;;5.80
58929;BMP180;44713;53.378;10.022;2023-04-25T04:52:54;100387.00;;;5.80
58929;BMP180;44713;53.378;10.022;2023-04-25T04:55:43;100380.00;;;5.80
58929;BMP180;44713;53.378;10.022;2023-04-25T04:58:27;100390.00;;;5.80
58929;BMP180;44713;53.378;10.022;2023-04-25T05:01:06;100385.00;;;5.80
58929;BMP180;44713;53.378;10.022;2023-04-25T05:03:53;100398.00;;;5.80
58929;BMP180;44713;53.378;10.022;2023-04-25T05:06:34;100398.00;;;5.90
58929;BMP180;44713;53.378;10.022;2023-04-25T05:09:27;100387.00;;;5.90
58929;BMP180;44713;53.378;10.022;2023-04-25T05:12:06;100391.00;;;6.00
58929;BMP180;44713;53.378;10.022;2023-04-25T05:14:45;100401.00;;;6.00
58929;BMP180;44713;53.378;10.022;2023-04-25T05:17:46;100397.00;;;6.00
58929;BMP180;44713;53.378;10.022;2023-04-25T05:20:11;100408.00;;;6.10
58929;BMP180;44713;53.378;10.022;2023-04-25T05:22:56;100425.00;;;6.10
58929;BMP180;44713;53.378;10.022;2023-04-25T05:25:36;100411.00;;;6.20
58929;BMP180;44713;53.378;10.022;2023-04-25T05:28:14;100414.00;;;6.20
58929;BMP180;44713;53.378;10.022;2023-04-25T05:30:56;100424.00;;;6.30
58929;BMP180;44713;53.378;10.022;2023-04-25T05:33:27;100419.00;;;6.20
58929;BMP180;44713;53.378;10.022;2023-04-25T05:35:53;100431.00;;;6.20
58929;BMP180;44713;53.378;10.022;2023-04-25T05:38:18;100433.00;;;6.30
58929;BMP180;44713;53.378;10.022;2023-04-25T05:41:07;100429.00;;;6.20
58929;BMP180;44713;53.378;10.022;2023-04-25T05:43:54;100448.00;;;6.20
58929;BMP180;44713;53.378;10.022;2023-04-25T05:46:26;100439.00;;;6.20
58929;BMP180;44713;53.378;10.022;2023-04-25T05:49:10;100435.00;;;6.20
58929;BMP180;44713;53.378;10.022;2023-04-25T05:51:55;100436.00;;;6.30
58929;BMP180;44713;53.378;10.022;2023-04-25T05:54:40;100451.00;;;6.30
58929;BMP180;44713;53.378;10.022;2023-04-25T05:57:06;100445.00;;;6.30
58929;BMP180;44713;53.378;10.022;2023-04-25T05:59:32;100446.00;;;6.30
58929;BMP180;44713;53.378;10.022;2023-04-25T06:01:57;100448.00;;;6.30
58929;BMP180;44713;53.378;10.022;2023-04-25T06:04:23;100450.00;;;6.40
58929;BMP180;44713;53.378;10.022;2023-04-25T06:06:48;100444.00;;;6.40
58929;BMP180;44713;53.378;10.022;2023-04-25T06:09:14;100445.00;;;6.50
58929;BMP180;44713;53.378;10.022;2023-04-25T06:11:39;100449.00;;;6.40
58929;BMP180;44713;53.378;10.022;2023-04-25T06:14:05;100438.00;;;6.30
58929;BMP180;44713;53.378;10.022;2023-04-25T06:16:34;100439.00;;;6.40
58929;BMP180;44713;53.378;10.022;2023-04-25T06:18:59;100439.00;;;6.50
58929;BMP180;44713;53.378;10.022;2023-04-25T06:21:25;100441.00;;;6.50
58929;BMP180;44713;53.378;10.022;2023-04-25T06:23:51;100454.00;;;6.60
58929;BMP180;44713;53.378;10.022;2023-04-25T06:26:22;100454.00;;;6.60
58929;BMP180;44713;53.378;10.022;2023-04-25T06:28:48;100448.00;;;6.50
58929;BMP180;44713;53.378;10.022;2023-04-25T06:31:14;100454.00;;;6.50
58929;BMP180;44713;53.378;10.022;2023-04-25T06:33:41;100460.00;;;6.60
58929;BMP180;44713;53.378;10.022;2023-04-25T06:36:07;100459.00;;;6.60
58929;BMP180;44713;53.378;10.022;2023-04-25T06:38:32;100456.00;;;6.60
58929;BMP180;44713;53.378;10.022;2023-04-25T06:41:03;100470.00;;;6.70
58929;BMP180;44713;53.378;10.022;2023-04-25T06:43:32;100473.00;;;6.60
58929;BMP180;44713;53.378;10.022;2023-04-25T06:46:04;100486.00;;;6.60
58929;BMP180;44713;53.378;10.022;2023-04-25T06:48:32;100473.00;;;6.60
58929;BMP180;44713;53.378;10.022;2023-04-25T06:50:58;100476.00;;;6.60
58929;BMP180;44713;53.378;10.022;2023-04-25T06:53:24;100481.00;;;6.70
58929;BMP180;44713;53.378;10.022;2023-04-25T06:55:56;100482.00;;;6.70
58929;BMP180;44713;53.378;10.022;2023-04-25T06:58:22;100489.00;;;6.80
58929;BMP180;44713;53.378;10.022;2023-04-25T07:01:10;100484.00;;;6.80
58929;BMP180;44713;53.378;10.022;2023-04-25T07:03:36;100481.00;;;6.90
58929;BMP180;44713;53.378;10.022;2023-04-25T07:06:06;100485.00;;;7.00
58929;BMP180;44713;53.378;10.022;2023-04-25T07:08:32;100481.00;;;7.10
58929;BMP180;44713;53.378;10.022;2023-04-25T07:10:58;100487.00;;;7.10
58929;BMP180;44713;53.378;10.022;2023-04-25T07:13:23;100479.00;;;7.20
58929;BMP180;44713;53.378;10.022;2023-04-25T07:15:53;100489.00;;;7.40
58929;BMP180;44713;53.378;10.022;2023-04-25T07:18:20;100497.00;;;7.30
58929;BMP180;44713;53.378;10.022;2023-04-25T07:20:49;100504.00;;;7.30
58929;BMP180;44713;53.378;10.022;2023-04-25T07:23:14;100495.00;;;7.20
58929;BMP180;44713;53.378;10.022;2023-04-25T07:25:41;100508.00;;;7.20
58929;BMP180;44713;53.378;10.022;2023-04-25T07:28:07;100507.00;;;7.10
58929;BMP180;44713;53.378;10.022;2023-04-25T07:30:32;100499.00;;;7.20
58929;BMP180;44713;53.378;10.022;2023-04-25T07:33:02;100514.00;;;7.30
58929;BMP180;44713;53.378;10.022;2023-04-25T07:35:28;100514.00;;;7.50
58929;BMP180;44713;53.378;10.022;2023-04-25T07:37:56;100506.00;;;7.30
58929;BMP180;44713;53.378;10.022;2023-04-25T07:40:24;100506.00;;;7.50
58929;BMP180;44713;53.378;10.022;2023-04-25T07:42:55;100501.00;;;7.50
58929;BMP180;44713;53.378;10.022;2023-04-25T07:45:27;100505.00;;;7.60
58929;BMP180;44713;53.378;10.022;2023-04-25T07:47:53;100508.00;;;7.60
58929;BMP180;44713;53.378;10.022;2023-04-25T07:50:19;100511.00;;;7.60
58929;BMP180;44713;53.378;10.022;2023-04-25T07:52:46;100513.00;;;7.70
58929;BMP180;44713;53.378;10.022;2023-04-25T07:55:26;100516.00;;;7.80
58929;BMP180;44713;53.378;10.022;2023-04-25T07:58:00;100515.00;;;7.80
58929;BMP180;44713;53.378;10.022;2023-04-25T08:00:28;100511.00;;;7.70
58929;BMP180;44713;53.378;10.022;2023-04-25T08:03:10;100515.00;;;7.80
58929;BMP180;44713;53.378;10.022;2023-04-25T08:05:35;100510.00;;;7.80
58929;BMP180;44713;53.378;10.022;2023-04-25T08:08:04;100526.00;;;7.90
58929;BMP180;44713;53.378;10.022;2023-04-25T08:10:32;100523.00;;;8.00
58929;BMP180;44713;53.378;10.022;2023-04-25T08:12:58;100527.00;;;7.90
58929;BMP180;44713;53.378;10.022;2023-04-25T08:15:24;100525.00;;;8.10
58929;BMP180;44713;53.378;10.022;2023-04-25T08:17:50;100526.00;;;8.20
58929;BMP180;44713;53.378;10.022;2023-04-25T08:20:16;100541.00;;;8.30
58929;BMP180;44713;53.378;10.022;2023-04-25T08:22:42;100533.00;;;8.10
58929;BMP180;44713;53.378;10.022;2023-04-25T08:25:36;100532.00;;;8.40
58929;BMP180;44713;53.378;10.022;2023-04-25T08:28:02;100527.00;;;8.80
58929;BMP180;44713;53.378;10.022;2023-04-25T08:30:29;100540.00;;;8.80
58929;BMP180;44713;53.378;10.022;2023-04-25T08:32:54;100537.00;;;8.60
58929;BMP180;44713;53.378;10.022;2023-04-25T08:35:34;100533.00;;;8.70
58929;BMP180;44713;53.378;10.022;2023-04-25T08:38:00;100535.00;;;8.70
58929;BMP180;44713;53.378;10.022;2023-04-25T08:40:27;100539.00;;;8.70
58929;BMP180;44713;53.378;10.022;2023-04-25T08:43:00;100549.00;;;8.90
58929;BMP180;44713;53.378;10.022;2023-04-25T08:45:33;100541.00;;;9.20
58929;BMP180;44713;53.378;10.022;2023-04-25T08:48:00;100545.00;;;9.10
58929;BMP180;44713;53.378;10.022;2023-04-25T08:50:26;100558.00;;;9.00
58929;BMP180;44713;53.378;10.022;2023-04-25T08:52:53;100562.00;;;9.00
58929;BMP180;44713;53.378;10.022;2023-04-25T08:55:20;100565.00;;;8.90
58929;BMP180;44713;53.378;10.022;2023-04-25T08:57:49;100568.00;;;9.00
58929;BMP180;44713;53.378;10.022;2023-04-25T09:00:16;100569.00;;;9.20
58929;BMP180;44713;53.378;10.022;2023-04-25T09:02:43;100572.00;;;9.50
58929;BMP180;44713;53.378;10.022;2023-04-25T09:05:09;100562.00;;;9.50
58929;BMP180;44713;53.378;10.022;2023-04-25T09:07:37;100578.00;;;9.50
58929;BMP180;44713;53.378;10.022;2023-04-25T09:10:03;100587.00;;;9.20
58929;BMP180;44713;53.378;10.022;2023-04-25T09:12:32;100581.00;;;9.40
58929;BMP180;44713;53.378;10.022;2023-04-25T09:15:06;100580.00;;;9.70
58929;BMP180;44713;53.378;10.022;2023-04-25T09:17:56;100592.00;;;9.90
58929;BMP180;44713;53.378;10.022;2023-04-25T09:20:21;100614.00;;;9.50
58929;BMP180;44713;53.378;10.022;2023-04-25T09:22:47;100651.00;;;8.80
58929;BMP180;44713;53.378;10.022;2023-04-25T09:25:13;100642.00;;;7.60
58929;BMP180;44713;53.378;10.022;2023-04-25T09:27:53;100656.00;;;7.20
58929;BMP180;44713;53.378;10.022;2023-04-25T09:30:35;100671.00;;;7.40
58929;BMP180;44713;53.378;10.022;2023-04-25T09:33:14;100671.00;;;7.30
58929;BMP180;44713;53.378;10.022;2023-04-25T09:35:45;100662.00;;;7.10
58929;BMP180;44713;53.378;10.022;2023-04-25T09:38:26;100683.00;;;6.90
58929;BMP180;44713;53.378;10.022;2023-04-25T09:41:09;100660.00;;;6.80
58929;BMP180;44713;53.378;10.022;2023-04-25T09:43:44;100660.00;;;6.80
58929;BMP180;44713;53.378;10.022;2023-04-25T09:46:11;100667.00;;;7.20
58929;BMP180;44713;53.378;10.022;2023-04-25T09:48:47;100663.00;;;7.50
58929;BMP180;44713;53.378;10.022;2023-04-25T09:51:13;100657.00;;;7.70
58929;BMP180;44713;53.378;10.022;2023-04-25T09:53:42;100670.00;;;8.00
58929;BMP180;44713;53.378;10.022;2023-04-25T09:56:34;100664.00;;;8.40
58929;BMP180;44713;53.378;10.022;2023-04-25T09:59:01;100659.00;;;8.30
58929;BMP180;44713;53.378;10.022;2023-04-25T10:01:28;100655.00;;;8.30
58929;BMP180;44713;53.378;10.022;2023-04-25T10:04:06;100663.00;;;8.20
58929;BMP180;44713;53.378;10.022;2023-04-25T10:06:52;100676.00;;;8.10
58929;BMP180;44713;53.378;10.022;2023-04-25T10:09:20;100687.00;;;8.00
58929;BMP180;44713;53.378;10.022;2023-04-25T10:11:46;100676.00;;;8.20
58929;BMP180;44713;53.378;10.022;2023-04-25T10:14:16;100678.00;;;8.40
58929;BMP180;44713;53.378;10.022;2023-04-25T10:16:41;100670.00;;;8.70
58929;BMP180;44713;53.378;10.022;2023-04-25T10:19:08;100663.00;;;9.20
58929;BMP180;44713;53.378;10.022;2023-04-25T10:21:34;100668.00;;;9.50
58929;BMP180;44713;53.378;10.022;2023-04-25T10:24:03;100671.00;;;10.10
58929;BMP180;44713;53.378;10.022;2023-04-25T10:26:28;100668.00;;;10.10
58929;BMP180;44713;53.378;10.022;2023-04-25T10:28:55;100667.00;;;9.90
58929;BMP180;44713;53.378;10.022;2023-04-25T10:31:22;100668.00;;;10.20
58929;BMP180;44713;53.378;10.022;2023-04-25T10:33:48;100675.00;;;10.00
58929;BMP180;44713;53.378;10.022;2023-04-25T10:36:15;100672.00;;;9.70
58929;BMP180;44713;53.378;10.022;2023-04-25T10:38:43;100662.00;;;9.60
58929;BMP180;44713;53.378;10.022;2023-04-25T10:41:09;100673.00;;;9.50
58929;BMP180;44713;53.378;10.022;2023-04-25T10:43:45;100668.00;;;9.50
58929;BMP180;44713;53.378;10.022;2023-04-25T10:46:18;100654.00;;;10.20
58929;BMP180;44713;53.378;10.022;2023-04-25T10:48:55;100660.00;;;10.30
58929;BMP180;44713;53.378;10.022;2023-04-25T10:51:23;100662.00;;;10.40
58929;BMP180;44713;53.378;10.022;2023-04-25T10:56:22;100691.00;;;9.80
58929;BMP180;44713;53.378;10.022;2023-04-25T10:58:48;100698.00;;;9.10
58929;BMP180;44713;53.378;10.022;2023-04-25T11:01:14;100707.00;;;8.60
58929;BMP180;44713;53.378;10.022;2023-04-25T11:03:41;100714.00;;;8.30
58929;BMP180;44713;53.378;10.022;2023-04-25T11:06:18;100722.00;;;8.50
58929;BMP180;44713;53.378;10.022;2023-04-25T11:08:51;100727.00;;;8.40
58929;BMP180;44713;53.378;10.022;2023-04-25T11:11:17;100732.00;;;8.20
58929;BMP180;44713;53.378;10.022;2023-04-25T11:13:43;100746.00;;;8.10
58929;BMP180;44713;53.378;10.022;2023-04-25T11:16:09;100736.00;;;7.90
58929;BMP180;44713;53.378;10.022;2023-04-25T11:18:34;100726.00;;;7.90
58929;BMP180;44713;53.378;10.022;2023-04-25T11:21:00;100732.00;;;8.10
58929;BMP180;44713;53.378;10.022;2023-04-25T11:23:26;100731.00;;;8.30
58929;BMP180;44713;53.378;10.022;2023-04-25T11:25:55;100729.00;;;8.50
58929;BMP180;44713;53.378;10.022;2023-04-25T11:28:21;100721.00;;;8.20
58929;BMP180;44713;53.378;10.022;2023-04-25T11:30:50;100720.00;;;8.40
58929;BMP180;44713;53.378;10.022;2023-04-25T11:33:16;100717.00;;;8.40
58929;BMP180;44713;53.378;10.022;2023-04-25T11:35:41;100708.00;;;8.70
58929;BMP180;44713;53.378;10.022;2023-04-25T11:38:08;100716.00;;;9.00
58929;BMP180;44713;53.378;10.022;2023-04-25T11:40:35;100719.00;;;9.40
58929;BMP180;44713;53.378;10.022;2023-04-25T11:43:01;100706.00;;;9.70
58929;BMP180;44713;53.378;10.022;2023-04-25T11:45:27;100724.00;;;10.00
58929;BMP180;44713;53.378;10.022;2023-04-25T11:47:54;100710.00;;;10.30
58929;BMP180;44713;53.378;10.022;2023-04-25T11:50:19;100721.00;;;11.00
58929;BMP180;44713;53.378;10.022;2023-04-25T11:52:46;100722.00;;;11.00
58929;BMP180;44713;53.378;10.022;2023-04-25T11:55:18;100720.00;;;11.10
58929;BMP180;44713;53.378;10.022;2023-04-25T11:57:45;100706.00;;;11.50
58929;BMP180;44713;53.378;10.022;2023-04-25T12:00:15;100703.00;;;11.40
58929;BMP180;44713;53.378;10.022;2023-04-25T12:02:44;100727.00;;;11.40
58929;BMP180;44713;53.378;10.022;2023-04-25T12:05:11;100720.00;;;11.00
58929;BMP180;44713;53.378;10.022;2023-04-25T12:07:37;100723.00;;;11.00
58929;BMP180;44713;53.378;10.022;2023-04-25T12:10:11;100729.00;;;10.90
58929;BMP180;44713;53.378;10.022;2023-04-25T12:12:37;100719.00;;;10.70
58929;BMP180;44713;53.378;10.022;2023-04-25T12:15:25;100725.00;;;10.40
58929;BMP180;44713;53.378;10.022;2023-04-25T12:17:52;100739.00;;;9.90
58929;BMP180;44713;53.378;10.022;2023-04-25T12:20:25;100747.00;;;9.90
58929;BMP180;44713;53.378;10.022;2023-04-25T12:22:52;100760.00;;;9.90
58929;BMP180;44713;53.378;10.022;2023-04-25T12:25:43;100764.00;;;9.50
58929;BMP180;44713;53.378;10.022;2023-04-25T12:28:22;100760.00;;;9.30
58929;BMP180;44713;53.378;10.022;2023-04-25T12:31:04;100746.00;;;9.60
58929;BMP180;44713;53.378;10.022;2023-04-25T12:33:32;100742.00;;;10.40
58929;BMP180;44713;53.378;10.022;2023-04-25T12:35:58;100743.00;;;11.00
58929;BMP180;44713;53.378;10.022;2023-04-25T12:38:25;100741.00;;;11.20
58929;BMP180;44713;53.378;10.022;2023-04-25T12:40:51;100753.00;;;11.70
58929;BMP180;44713;53.378;10.022;2023-04-25T12:43:17;100746.00;;;11.40
58929;BMP180;44713;53.378;10.022;2023-04-25T12:45:43;100767.00;;;10.80
58929;BMP180;44713;53.378;10.022;2023-04-25T12:48:09;100794.00;;;10.00
58929;BMP180;44713;53.378;10.022;2023-04-25T12:50:35;100780.00;;;9.50
58929;BMP180;44713;53.378;10.022;2023-04-25T12:53:00;100780.00;;;9.20
58929;BMP180;44713;53.378;10.022;2023-04-25T12:55:25;100790.00;;;9.50
58929;BMP180;44713;53.378;10.022;2023-04-25T12:57:51;100800.00;;;9.40
58929;BMP180;44713;53.378;10.022;2023-04-25T13:00:17;100794.00;;;9.30
58929;BMP180;44713;53.378;10.022;2023-04-25T13:02:44;100788.00;;;9.60
58929;BMP180;44713;53.378;10.022;2023-04-25T13:05:11;100787.00;;;9.40
58929;BMP180;44713;53.378;10.022;2023-04-25T13:07:36;100797.00;;;9.60
58929;BMP180;44713;53.378;10.022;2023-04-25T13:10:02;100795.00;;;9.60
58929;BMP180;44713;53.378;10.022;2023-04-25T13:12:28;100797.00;;;9.90
58929;BMP180;44713;53.378;10.022;2023-04-25T13:14:53;100799.00;;;10.10
58929;BMP180;44713;53.378;10.022;2023-04-25T13:17:18;100800.00;;;10.20
58929;BMP180;44713;53.378;10.022;2023-04-25T13:19:44;100785.00;;;10.50
58929;BMP180;44713;53.378;10.022;2023-04-25T13:22:09;100801.00;;;10.90
58929;BMP180;44713;53.378;10.022;2023-04-25T13:24:35;100801.00;;;10.60
58929;BMP180;44713;53.378;10.022;2023-04-25T13:27:00;100786.00;;;10.80
58929;BMP180;44713;53.378;10.022;2023-04-25T13:29:26;100801.00;;;11.10
58929;BMP180;44713;53.378;10.022;2023-04-25T13:31:51;100788.00;;;11.40
58929;BMP180;44713;53.378;10.022;2023-04-25T13:34:17;100798.00;;;11.10
58929;BMP180;44713;53.378;10.022;2023-04-25T13:36:48;100806.00;;;11.20
58929;BMP180;44713;53.378;10.022;2023-04-25T13:39:13;100790.00;;;11.20
58929;BMP180;44713;53.378;10.022;2023-04-25T13:41:39;100775.00;;;11.50
58929;BMP180;44713;53.378;10.022;2023-04-25T13:44:04;100796.00;;;11.50
58929;BMP180;44713;53.378;10.022;2023-04-25T13:46:30;100781.00;;;11.10
58929;BMP180;44713;53.378;10.022;2023-04-25T13:48:55;100799.00;;;10.90
58929;BMP180;44713;53.378;10.022;2023-04-25T13:51:20;100807.00;;;10.60
58929;BMP180;44713;53.378;10.022;2023-04-25T13:53:46;100802.00;;;10.20
58929;BMP180;44713;53.378;10.022;2023-04-25T13:56:11;100820.00;;;10.20
58929;BMP180;44713;53.378;10.022;2023-04-25T13:58:37;100823.00;;;9.90
58929;BMP180;44713;53.378;10.022;2023-04-25T14:01:02;100819.00;;;9.50
58929;BMP180;44713;53.378;10.022;2023-04-25T14:03:28;100823.00;;;9.70
58929;BMP180;44713;53.378;10.022;2023-04-25T14:05:55;100822.00;;;9.60
58929;BMP180;44713;53.378;10.022;2023-04-25T14:08:20;100828.00;;;9.80